Time,TemperatureF,DewpointF,PressureIn,WindDirection,WindDirectionDegrees,WindSpeedMPH,WindSpeedGustMPH,Humidity,HourlyPrecipIn,Conditions,Clouds,dailyrainin,SoftwareType,DateUTC
2013-03-23 00:07:00,20.9,16.0,32.35,NW,318,6.0,11.0,81,0.00,,,0.00,weatherlink.com 1.10,2013-03-23 06:07:00,
2013-03-23 00:22:00,20.9,16.0,32.35,WNW,290,8.0,11.0,81,0.00,,,0.00,weatherlink.com 1.10,2013-03-23 06:22:00,
2013-03-23 00:37:00,20.9,16.0,32.36,NW,315,9.0,12.0,82,0.00,,,0.00,weatherlink.com 1.10,2013-03-23 06:37:00,
2013-03-23 00:52:00,20.7,16.0,32.37,NW,319,6.0,12.0,82,0.00,,,0.00,weatherlink.com 1.10,2013-03-23 06:52:00,
2013-03-23 01:07:00,20.6,16.0,32.37,North,355,4.0,11.0,82,0.00,,,0.00,weatherlink.com 1.10,2013-03-23 07:07:00,
2013-03-23 01:22:00,20.5,16.0,32.37,West,270,1.0,7.0,82,0.00,,,0.00,weatherlink.com 1.10,2013-03-23 07:22:00,
2013-03-23 01:37:00,20.3,16.0,32.38,WNW,286,5.0,8.0,82,0.00,,,0.00,weatherlink.com 1.10,2013-03-23 07:37:00,
2013-03-23 01:52:00,20.2,16.0,32.38,NW,323,3.0,7.0,83,0.00,,,0.00,weatherlink.com 1.10,2013-03-23 07:52:00,
2013-03-23 02:07:00,20.2,16.0,32.38,WNW,300,7.0,10.0,85,0.00,,,0.00,weatherlink.com 1.10,2013-03-23 08:07:00,
2013-03-23 02:22:00,20.2,16.0,32.39,NNW,333,6.0,9.0,85,0.00,,,0.00,weatherlink.com 1.10,2013-03-23 08:22:00,
2013-03-23 02:37:00,19.4,17.0,32.40,West,277,3.0,4.0,89,0.00,,,0.00,weatherlink.com 1.10,2013-03-23 08:37:00,
2013-03-23 02:52:00,19.7,17.0,32.40,WNW,299,5.0,6.0,88,0.00,,,0.00,weatherlink.com 1.10,2013-03-23 08:52:00,
2013-03-23 03:07:00,19.4,17.0,32.41,NW,304,7.0,8.0,89,0.00,,,0.00,weatherlink.com 1.10,2013-03-23 09:07:00,
2013-03-23 03:23:00,19.7,17.0,32.41,NW,319,7.0,10.0,87,0.00,,,0.00,weatherlink.com 1.10,2013-03-23 09:23:00,
2013-03-23 03:38:00,19.5,15.0,32.41,NW,318,9.0,16.0,84,0.00,,,0.00,weatherlink.com 1.10,2013-03-23 09:38:00,
2013-03-23 03:53:00,19.1,15.0,32.41,NNW,338,9.0,14.0,84,0.00,,,0.00,weatherlink.com 1.10,2013-03-23 09:53:00,
2013-03-23 04:08:00,18.9,15.0,32.41,NNW,347,8.0,13.0,85,0.00,,,0.00,weatherlink.com 1.10,2013-03-23 10:08:00,
2013-03-23 04:23:00,19.0,15.0,32.42,NW,307,8.0,13.0,84,0.00,,,0.00,weatherlink.com 1.10,2013-03-23 10:23:00,
2013-03-23 04:38:00,19.0,14.0,32.42,NNW,339,8.0,12.0,82,0.00,,,0.00,weatherlink.com 1.10,2013-03-23 10:38:00,
2013-03-23 04:53:00,18.7,14.0,32.42,NW,316,9.0,13.0,82,0.00,,,0.00,weatherlink.com 1.10,2013-03-23 10:53:00,
2013-03-23 05:08:00,18.5,14.0,32.42,NW,312,9.0,13.0,82,0.00,,,0.00,weatherlink.com 1.10,2013-03-23 11:08:00,
2013-03-23 05:23:00,18.6,14.0,32.43,WNW,300,7.0,12.0,82,0.00,,,0.00,weatherlink.com 1.10,2013-03-23 11:23:00,
2013-03-23 05:38:00,18.6,14.0,32.43,NW,311,7.0,10.0,82,0.00,,,0.00,weatherlink.com 1.10,2013-03-23 11:38:00,
2013-03-23 05:53:00,18.7,14.0,32.44,NW,306,6.0,7.0,83,0.00,,,0.00,weatherlink.com 1.10,2013-03-23 11:53:00,
2013-03-23 06:08:00,18.7,14.0,32.45,WNW,294,4.0,7.0,83,0.00,,,0.00,weatherlink.com 1.10,2013-03-23 12:08:00,
2013-03-23 06:23:00,18.2,15.0,32.45,West,278,5.0,6.0,86,0.00,,,0.00,weatherlink.com 1.10,2013-03-23 12:23:00,
2013-03-23 06:38:00,18.0,15.0,32.45,NW,304,5.0,8.0,88,0.00,,,0.00,weatherlink.com 1.10,2013-03-23 12:38:00,
2013-03-23 06:53:00,18.2,15.0,32.46,WNW,294,5.0,7.0,87,0.00,,,0.00,weatherlink.com 1.10,2013-03-23 12:53:00,
2013-03-23 07:08:00,18.1,15.0,32.46,NW,306,5.0,6.0,86,0.00,,,0.00,weatherlink.com 1.10,2013-03-23 13:08:00,
2013-03-23 07:23:00,18.1,14.0,32.47,NW,306,3.0,8.0,84,0.00,,,0.00,weatherlink.com 1.10,2013-03-23 13:23:00,
2013-03-23 07:38:00,17.8,14.0,32.47,NNW,344,2.0,6.0,84,0.00,,,0.00,weatherlink.com 1.10,2013-03-23 13:38:00,
2013-03-23 07:53:00,17.6,14.0,32.47,NW,325,2.0,4.0,84,0.00,,,0.00,weatherlink.com 1.10,2013-03-23 13:53:00,
2013-03-23 08:08:00,16.9,13.0,32.48,WNW,294,0.0,4.0,86,0.00,,,0.00,weatherlink.com 1.10,2013-03-23 14:08:00,
2013-03-23 08:23:00,16.9,14.0,32.48,WNW,295,0.0,1.0,89,0.00,,,0.00,weatherlink.com 1.10,2013-03-23 14:23:00,
2013-03-23 08:38:00,17.5,15.0,32.48,SE,141,1.0,3.0,90,0.00,,,0.00,weatherlink.com 1.10,2013-03-23 14:38:00,
2013-03-23 08:53:00,17.8,16.0,32.49,SSE,156,0.0,4.0,91,0.00,,,0.00,weatherlink.com 1.10,2013-03-23 14:53:00,
2013-03-23 09:08:00,17.6,16.0,32.49,SSE,157,1.0,2.0,91,0.00,,,0.00,weatherlink.com 1.10,2013-03-23 15:08:00,
2013-03-23 09:23:00,17.9,16.0,32.49,SSE,157,1.0,2.0,92,0.00,,,0.00,weatherlink.com 1.10,2013-03-23 15:23:00,
2013-03-23 09:38:00,18.2,16.0,32.49,SSE,155,1.0,3.0,92,0.00,,,0.00,weatherlink.com 1.10,2013-03-23 15:38:00,
2013-03-23 09:53:00,18.9,17.0,32.49,SW,226,2.0,3.0,91,0.00,,,0.00,weatherlink.com 1.10,2013-03-23 15:53:00,
2013-03-23 10:08:00,18.9,17.0,32.49,SW,227,0.0,3.0,91,0.00,,,0.00,weatherlink.com 1.10,2013-03-23 16:08:00,
2013-03-23 10:23:00,20.3,18.0,32.49,SSE,148,4.0,5.0,89,0.00,,,0.00,weatherlink.com 1.10,2013-03-23 16:23:00,
2013-03-23 10:38:00,19.9,18.0,32.50,SE,136,7.0,7.0,90,0.00,,,0.00,weatherlink.com 1.10,2013-03-23 16:38:00,
2013-03-23 10:53:00,19.7,17.0,32.50,SE,126,2.0,6.0,89,0.00,,,0.00,weatherlink.com 1.10,2013-03-23 16:53:00,
2013-03-23 11:08:00,20.3,17.0,32.50,SE,144,5.0,8.0,88,0.00,,,0.00,weatherlink.com 1.10,2013-03-23 17:08:00,
2013-03-23 11:23:00,21.9,18.0,32.50,ESE,120,7.0,8.0,85,0.00,,,0.00,weatherlink.com 1.10,2013-03-23 17:23:00,
2013-03-23 11:38:00,22.0,18.0,32.49,SE,128,6.0,9.0,85,0.00,,,0.00,weatherlink.com 1.10,2013-03-23 17:38:00,
2013-03-23 11:53:00,22.7,18.0,32.49,SE,143,8.0,10.0,83,0.00,,,0.00,weatherlink.com 1.10,2013-03-23 17:53:00,
2013-03-23 12:08:00,23.4,19.0,32.48,SE,136,6.0,9.0,82,0.00,,,0.00,weatherlink.com 1.10,2013-03-23 18:08:00,
2013-03-23 12:24:00,24.5,20.0,32.48,SSE,148,7.0,9.0,82,0.00,,,0.00,weatherlink.com 1.10,2013-03-23 18:24:00,
2013-03-23 12:39:00,24.2,19.0,32.47,SE,132,4.0,10.0,80,0.00,,,0.00,weatherlink.com 1.10,2013-03-23 18:39:00,
2013-03-23 12:54:00,25.4,19.0,32.47,SSE,165,4.0,11.0,78,0.01,,,0.01,weatherlink.com 1.10,2013-03-23 18:54:00,
2013-03-23 13:09:00,24.2,19.0,32.46,SW,217,5.0,8.0,80,0.01,,,0.01,weatherlink.com 1.10,2013-03-23 19:09:00,
2013-03-23 13:24:00,24.5,18.0,32.46,SSE,155,4.0,8.0,77,0.01,,,0.01,weatherlink.com 1.10,2013-03-23 19:24:00,
2013-03-23 13:39:00,25.3,19.0,32.46,South,183,6.0,13.0,78,0.01,,,0.01,weatherlink.com 1.10,2013-03-23 19:39:00,
2013-03-23 13:54:00,-999.0,-99.9,32.45,North,-999,-999.0,-999.0,-999,0.00,,,0.01,weatherlink.com 1.10,2013-03-23 19:54:00,
2013-03-23 14:09:00,-999.0,-99.9,32.44,North,-999,-999.0,-999.0,-999,0.00,,,0.01,weatherlink.com 1.10,2013-03-23 20:09:00,
2013-03-23 14:24:00,24.5,16.0,32.43,WSW,254,4.0,12.0,70,0.00,,,0.01,weatherlink.com 1.10,2013-03-23 20:24:00,
2013-03-23 14:39:00,24.3,14.0,32.43,NW,306,7.0,11.0,66,0.00,,,0.01,weatherlink.com 1.10,2013-03-23 20:39:00,
2013-03-23 14:54:00,24.6,15.0,32.42,WSW,244,2.0,7.0,68,0.00,,,0.01,weatherlink.com 1.10,2013-03-23 20:54:00,
2013-03-23 15:09:00,26.3,16.0,32.42,SW,216,2.0,9.0,64,0.00,,,0.01,weatherlink.com 1.10,2013-03-23 21:09:00,
2013-03-23 15:24:00,25.1,16.0,32.42,West,260,5.0,8.0,68,0.00,,,0.01,weatherlink.com 1.10,2013-03-23 21:24:00,
2013-03-23 15:39:00,24.7,17.0,32.42,WSW,250,3.0,10.0,71,0.00,,,0.01,weatherlink.com 1.10,2013-03-23 21:39:00,
2013-03-23 15:54:00,25.4,19.0,32.42,WSW,252,0.0,13.0,76,0.00,,,0.01,weatherlink.com 1.10,2013-03-23 21:54:00,
2013-03-23 16:09:00,26.2,13.0,32.42,North,355,12.0,16.0,57,0.00,,,0.01,weatherlink.com 1.10,2013-03-23 22:09:00,
2013-03-23 16:24:00,24.8,16.0,32.43,NNW,339,16.0,20.0,68,0.00,,,0.01,weatherlink.com 1.10,2013-03-23 22:24:00,
2013-03-23 16:39:00,23.0,12.0,32.42,WNW,298,2.0,22.0,63,0.00,,,0.01,weatherlink.com 1.10,2013-03-23 22:39:00,
2013-03-23 16:54:00,26.1,14.0,32.42,NNE,31,2.0,5.0,61,0.00,,,0.01,weatherlink.com 1.10,2013-03-23 22:54:00,
2013-03-23 17:09:00,27.6,17.0,32.41,SW,235,2.0,5.0,64,0.00,,,0.01,weatherlink.com 1.10,2013-03-23 23:09:00,
2013-03-23 17:24:00,27.5,16.0,32.41,South,173,2.0,8.0,61,0.00,,,0.01,weatherlink.com 1.10,2013-03-23 23:24:00,
2013-03-23 17:39:00,27.1,15.0,32.41,WSW,256,7.0,9.0,61,0.00,,,0.01,weatherlink.com 1.10,2013-03-23 23:39:00,
2013-03-23 17:54:00,26.0,14.0,32.42,West,277,4.0,12.0,61,0.00,,,0.01,weatherlink.com 1.10,2013-03-23 23:54:00,
2013-03-23 18:09:00,25.6,14.0,32.42,NW,310,6.0,14.0,63,0.00,,,0.01,weatherlink.com 1.10,2013-03-24 00:09:00,
2013-03-23 18:24:00,-999.0,-99.9,32.42,North,-999,-999.0,-999.0,-999,0.00,,,0.01,weatherlink.com 1.10,2013-03-24 00:24:00,
2013-03-23 18:39:00,-999.0,-99.9,32.42,North,-999,-999.0,-999.0,-999,0.00,,,0.01,weatherlink.com 1.10,2013-03-24 00:39:00,
2013-03-23 18:54:00,-999.0,-99.9,32.42,North,-999,-999.0,-999.0,-999,0.00,,,0.01,weatherlink.com 1.10,2013-03-24 00:54:00,
2013-03-23 19:09:00,22.0,16.0,32.41,NNW,344,12.0,14.0,78,0.00,,,0.01,weatherlink.com 1.10,2013-03-24 01:09:00,
2013-03-23 19:24:00,22.0,15.0,32.42,NNW,345,11.0,16.0,75,0.00,,,0.01,weatherlink.com 1.10,2013-03-24 01:24:00,
2013-03-23 19:39:00,22.6,14.0,32.43,NNW,336,7.0,13.0,69,0.00,,,0.01,weatherlink.com 1.10,2013-03-24 01:39:00,
2013-03-23 19:54:00,22.8,13.0,32.44,NNW,342,9.0,11.0,67,0.00,,,0.01,weatherlink.com 1.10,2013-03-24 01:54:00,
2013-03-23 20:09:00,22.6,14.0,32.44,WNW,286,6.0,11.0,69,0.00,,,0.01,weatherlink.com 1.10,2013-03-24 02:09:00,
2013-03-23 20:24:00,22.3,15.0,32.45,WNW,296,9.0,11.0,73,0.00,,,0.01,weatherlink.com 1.10,2013-03-24 02:24:00,
2013-03-23 20:39:00,21.1,17.0,32.45,NW,309,3.0,11.0,83,0.00,,,0.01,weatherlink.com 1.10,2013-03-24 02:39:00,
2013-03-23 20:54:00,21.0,17.0,32.45,NW,316,3.0,4.0,83,0.00,,,0.01,weatherlink.com 1.10,2013-03-24 02:54:00,
2013-03-23 21:09:00,21.7,16.0,32.45,NW,311,4.0,6.0,78,0.00,,,0.01,weatherlink.com 1.10,2013-03-24 03:09:00,
2013-03-23 21:24:00,21.4,16.0,32.46,WNW,284,7.0,11.0,80,0.00,,,0.01,weatherlink.com 1.10,2013-03-24 03:24:00,
2013-03-23 21:39:00,21.2,16.0,32.47,NW,325,8.0,9.0,79,0.00,,,0.01,weatherlink.com 1.10,2013-03-24 03:39:00,
2013-03-23 21:54:00,21.2,16.0,32.47,WNW,302,6.0,9.0,80,0.00,,,0.01,weatherlink.com 1.10,2013-03-24 03:54:00,
2013-03-23 22:09:00,21.1,16.0,32.47,NW,319,6.0,7.0,80,0.00,,,0.01,weatherlink.com 1.10,2013-03-24 04:09:00,
2013-03-23 22:24:00,21.0,16.0,32.47,NNW,331,0.0,5.0,80,0.00,,,0.01,weatherlink.com 1.10,2013-03-24 04:24:00,
2013-03-23 22:39:00,20.6,16.0,32.48,NNW,340,5.0,6.0,81,0.00,,,0.01,weatherlink.com 1.10,2013-03-24 04:39:00,
2013-03-23 22:55:00,21.0,16.0,32.48,NNW,336,6.0,7.0,80,0.00,,,0.01,weatherlink.com 1.10,2013-03-24 04:55:00,
2013-03-23 23:10:00,20.9,15.0,32.48,NW,313,3.0,7.0,78,0.00,,,0.01,weatherlink.com 1.10,2013-03-24 05:10:00,
2013-03-23 23:25:00,20.3,15.0,32.48,NW,321,2.0,4.0,79,0.00,,,0.01,weatherlink.com 1.10,2013-03-24 05:25:00,
2013-03-23 23:40:00,19.6,15.0,32.48,West,260,0.0,2.0,83,0.00,,,0.01,weatherlink.com 1.10,2013-03-24 05:40:00,
2013-03-23 23:55:00,19.2,15.0,32.48,West,261,2.0,2.0,85,0.00,,,0.01,weatherlink.com 1.10,2013-03-24 05:55:00,